createdAt,value
2023-05-15T00:01:41.314Z,15.35
2023-05-15T00:04:08.348Z,15.33
2023-05-15T00:06:35.619Z,15.31
2023-05-15T00:09:02.657Z,15.28
2023-05-15T00:11:29.740Z,15.26
2023-05-15T00:13:56.817Z,15.22
2023-05-15T00:16:24.662Z,15.19
2023-05-15T00:18:51.744Z,15.17
2023-05-15T00:21:20.207Z,15.14
2023-05-15T00:23:47.879Z,15.08
2023-05-15T00:26:15.965Z,14.99
2023-05-15T00:28:43.125Z,14.91
2023-05-15T00:31:11.367Z,14.83
2023-05-15T00:33:38.427Z,14.74
2023-05-15T00:36:06.123Z,14.64
2023-05-15T00:38:33.930Z,14.59
2023-05-15T00:41:01.930Z,14.60
2023-05-15T00:43:29.017Z,14.60
2023-05-15T00:45:56.154Z,14.58
2023-05-15T00:48:23.156Z,14.55
2023-05-15T00:50:51.705Z,14.53
2023-05-15T00:53:19.114Z,14.49
2023-05-15T00:55:47.316Z,14.43
2023-05-15T00:58:15.070Z,14.42
2023-05-15T01:00:45.296Z,14.42
2023-05-15T01:03:12.439Z,14.37
2023-05-15T01:05:39.529Z,14.32
2023-05-15T01:08:23.004Z,14.33
2023-05-15T01:10:51.148Z,14.36
2023-05-15T01:13:22.666Z,14.33
2023-05-15T01:15:50.082Z,14.24
2023-05-15T01:18:17.599Z,14.10
2023-05-15T01:21:06.444Z,13.95
2023-05-15T01:24:17.262Z,13.82
2023-05-15T01:27:20.506Z,13.70
2023-05-15T01:29:57.111Z,13.59
2023-05-15T01:32:28.730Z,13.54
2023-05-15T01:35:05.541Z,13.55
2023-05-15T01:37:34.595Z,13.57
2023-05-15T01:40:03.463Z,13.60
2023-05-15T01:42:36.868Z,13.63
2023-05-15T01:45:06.028Z,13.65
2023-05-15T01:47:42.305Z,13.63
2023-05-15T01:50:10.776Z,13.64
2023-05-15T01:52:40.616Z,13.66
2023-05-15T01:55:08.101Z,13.67
2023-05-15T01:57:35.389Z,13.67
2023-05-15T02:00:03.234Z,13.68
2023-05-15T02:02:50.297Z,13.66
2023-05-15T02:05:18.912Z,13.61
2023-05-15T02:07:46.774Z,13.58
2023-05-15T02:10:15.672Z,13.58
2023-05-15T02:12:47.176Z,13.51
2023-05-15T02:15:14.385Z,13.44
2023-05-15T02:17:41.681Z,13.45
2023-05-15T02:20:09.238Z,13.49
2023-05-15T02:22:38.331Z,13.53
2023-05-15T02:25:06.332Z,13.54
2023-05-15T02:28:00.508Z,13.48
2023-05-15T02:30:46.050Z,13.42
2023-05-15T02:33:22.300Z,13.42
2023-05-15T02:35:57.241Z,13.49
2023-05-15T02:38:29.535Z,13.54
2023-05-15T02:40:58.982Z,13.59
2023-05-15T02:43:26.222Z,13.67
2023-05-15T02:45:53.388Z,13.74
2023-05-15T02:48:20.582Z,13.82
2023-05-15T02:50:47.652Z,13.88
2023-05-15T02:53:16.264Z,13.93
2023-05-15T02:55:43.537Z,13.98
2023-05-15T02:58:10.992Z,14.01
2023-05-15T03:00:38.058Z,14.10
2023-05-15T03:03:05.128Z,14.17
2023-05-15T03:05:32.183Z,14.24
2023-05-15T03:08:01.308Z,14.34
2023-05-15T03:10:28.394Z,14.43
2023-05-15T03:12:58.634Z,14.53
2023-05-15T03:15:26.052Z,14.62
2023-05-15T03:17:53.538Z,14.70
2023-05-15T03:20:20.672Z,14.81
2023-05-15T03:22:47.758Z,14.91
2023-05-15T03:25:18.406Z,14.93
2023-05-15T03:27:46.719Z,14.89
2023-05-15T03:30:13.818Z,14.88
2023-05-15T03:32:40.928Z,14.90
2023-05-15T03:35:08.511Z,14.95
2023-05-15T03:37:35.593Z,15.03
2023-05-15T03:40:03.710Z,15.14
2023-05-15T03:42:30.804Z,15.27
2023-05-15T03:44:58.008Z,15.41
2023-05-15T03:47:26.597Z,15.54
2023-05-15T03:49:53.830Z,15.68
2023-05-15T03:52:21.123Z,15.80
2023-05-15T03:54:48.202Z,15.93
2023-05-15T03:57:15.257Z,16.04
2023-05-15T03:59:42.321Z,16.13
2023-05-15T04:02:09.496Z,16.22
2023-05-15T04:04:37.758Z,16.31
2023-05-15T04:07:05.816Z,16.40
2023-05-15T04:09:33.023Z,16.49
2023-05-15T04:12:00.064Z,16.61
2023-05-15T04:14:27.168Z,16.74
2023-05-15T04:16:54.314Z,16.86
2023-05-15T04:19:21.439Z,16.97
2023-05-15T04:21:48.541Z,17.09
2023-05-15T04:24:16.201Z,17.21
2023-05-15T04:26:43.565Z,17.31
2023-05-15T04:29:10.682Z,17.44
2023-05-15T04:31:38.756Z,17.62
2023-05-15T04:34:06.720Z,17.79
2023-05-15T04:36:34.348Z,17.96
2023-05-15T04:39:01.405Z,18.10
2023-05-15T04:41:28.707Z,18.26
2023-05-15T04:43:56.264Z,18.39
2023-05-15T04:46:23.457Z,18.52
2023-05-15T04:48:51.203Z,18.64
2023-05-15T04:51:18.311Z,18.75
2023-05-15T04:53:45.446Z,18.85
2023-05-15T04:56:13.732Z,18.96
2023-05-15T04:58:41.675Z,19.09
2023-05-15T05:01:08.867Z,19.23
2023-05-15T05:03:35.959Z,19.37
2023-05-15T05:06:03.029Z,19.52
2023-05-15T05:08:30.075Z,19.68
2023-05-15T05:10:59.994Z,19.81
2023-05-15T05:13:28.058Z,19.98
2023-05-15T05:15:55.296Z,20.15
2023-05-15T05:18:22.674Z,20.31
2023-05-15T05:20:50.827Z,20.46
2023-05-15T05:23:19.331Z,20.61
2023-05-15T05:25:46.403Z,20.76
2023-05-15T05:28:13.442Z,20.88
2023-05-15T05:30:40.866Z,20.97
2023-05-15T05:33:08.152Z,21.09
2023-05-15T05:35:35.268Z,21.22
2023-05-15T05:38:02.310Z,21.36
2023-05-15T05:40:29.955Z,21.50
2023-05-15T05:43:03.315Z,21.65
2023-05-15T05:45:31.534Z,21.79
2023-05-15T05:47:59.879Z,21.93
2023-05-15T05:50:27.013Z,22.07
2023-05-15T05:52:54.017Z,22.22
2023-05-15T05:55:21.077Z,22.38
2023-05-15T05:57:48.074Z,22.52
2023-05-15T06:00:15.551Z,22.63
2023-05-15T06:02:42.712Z,22.71
2023-05-15T06:05:10.422Z,22.81
2023-05-15T06:07:37.562Z,22.92
2023-05-15T06:10:05.192Z,23.01
2023-05-15T06:12:32.233Z,23.10
2023-05-15T06:14:59.277Z,23.18
2023-05-15T06:17:26.431Z,23.29
2023-05-15T06:19:55.337Z,23.40
2023-05-15T06:22:32.822Z,23.49
2023-05-15T06:24:59.976Z,23.59
2023-05-15T06:27:27.724Z,23.62
2023-05-15T06:29:55.051Z,23.68
2023-05-15T06:32:22.107Z,23.76
2023-05-15T06:34:49.233Z,23.85
2023-05-15T06:37:16.315Z,23.96
2023-05-15T06:39:43.420Z,24.06
2023-05-15T06:42:10.616Z,24.18
2023-05-15T06:44:38.352Z,24.30
2023-05-15T06:47:06.139Z,24.42
2023-05-15T06:49:33.547Z,24.54
2023-05-15T06:52:00.708Z,24.66
2023-05-15T06:54:27.863Z,24.76
2023-05-15T06:57:08.505Z,24.86
2023-05-15T06:59:36.012Z,24.95
2023-05-15T07:02:03.815Z,24.99
2023-05-15T07:04:33.815Z,24.99
2023-05-15T07:07:00.876Z,24.98
2023-05-15T07:09:29.546Z,24.99
2023-05-15T07:11:57.194Z,25.05
2023-05-15T07:14:24.436Z,25.12
2023-05-15T07:16:51.506Z,25.25
2023-05-15T07:19:22.073Z,25.43
2023-05-15T07:39:07.487Z,25.92
2023-05-15T07:41:34.581Z,26.92
2023-05-15T07:44:01.575Z,27.06
2023-05-15T07:46:28.749Z,27.16
2023-05-15T07:48:56.837Z,27.21
2023-05-15T07:51:26.908Z,27.30
2023-05-15T07:53:54.791Z,27.42
2023-05-15T07:56:21.824Z,27.45
2023-05-15T07:58:49.845Z,27.47
2023-05-15T08:01:22.260Z,27.53
2023-05-15T08:03:49.723Z,27.61
2023-05-15T13:22:30.657Z,29.94
2023-05-15T13:24:59.241Z,31.73
2023-05-15T13:27:26.883Z,31.80
2023-05-15T13:29:56.185Z,31.93
2023-05-15T13:32:31.997Z,32.01
2023-05-15T13:35:04.349Z,31.99
2023-05-15T13:37:33.181Z,31.91
2023-05-15T13:40:00.085Z,31.78
2023-05-15T13:42:26.953Z,31.62
2023-05-15T13:44:53.748Z,31.45
2023-05-15T13:47:21.421Z,31.35
2023-05-15T13:49:48.316Z,31.30
2023-05-15T13:52:15.268Z,31.36
2023-05-15T13:54:42.493Z,31.45
2023-05-15T13:57:09.994Z,31.48
2023-05-15T13:59:37.394Z,31.42
2023-05-15T14:02:04.409Z,31.38
2023-05-15T14:04:31.285Z,31.38
2023-05-15T14:06:58.132Z,31.40
2023-05-15T14:09:28.432Z,31.53
2023-05-15T14:11:55.912Z,31.79
2023-05-15T14:14:23.027Z,32.02
2023-05-15T14:16:49.984Z,32.39
2023-05-15T14:19:17.426Z,32.90
2023-05-15T14:21:44.490Z,33.31
2023-05-15T14:24:11.336Z,33.75
2023-05-15T14:26:38.522Z,34.18
2023-05-15T14:29:05.620Z,34.54
2023-05-15T14:31:33.386Z,34.87
2023-05-15T14:34:00.857Z,35.15
2023-05-15T14:36:27.746Z,35.38
2023-05-15T14:38:54.654Z,35.59
2023-05-15T14:41:21.768Z,35.80
2023-05-15T14:43:51.561Z,35.93
2023-05-15T14:46:18.898Z,36.02
2023-05-15T14:48:45.936Z,36.04
2023-05-15T14:51:12.751Z,36.03
2023-05-15T14:53:39.556Z,36.03
2023-05-15T14:56:06.378Z,36.04
2023-05-15T14:58:33.771Z,36.05
2023-05-15T15:01:00.678Z,36.01
2023-05-15T15:03:29.982Z,35.87
2023-05-15T15:05:58.030Z,35.63
2023-05-15T15:08:25.294Z,35.39
2023-05-15T15:10:52.073Z,35.18
2023-05-15T15:13:19.026Z,35.01
2023-05-15T15:15:46.019Z,34.84
2023-05-15T15:18:12.892Z,34.61
2023-05-15T15:20:40.652Z,34.42
2023-05-15T15:23:07.391Z,34.30
2023-05-15T15:25:35.049Z,34.09
2023-05-15T15:28:02.335Z,33.80
2023-05-15T15:30:30.935Z,33.51
2023-05-15T15:33:00.795Z,33.20
2023-05-15T15:35:28.650Z,32.95
2023-05-15T15:37:55.975Z,32.75
2023-05-15T15:40:23.778Z,32.46
2023-05-15T15:42:51.171Z,32.04
2023-05-15T15:45:18.017Z,31.64
2023-05-15T15:47:45.102Z,31.29
2023-05-15T15:50:12.027Z,31.05
2023-05-15T15:52:39.620Z,30.88
2023-05-15T15:55:07.153Z,30.68
2023-05-15T15:57:34.507Z,30.52
2023-05-15T16:00:03.527Z,30.30
2023-05-15T16:02:32.867Z,30.09
2023-05-15T16:05:01.363Z,29.95
2023-05-15T16:07:28.153Z,29.89
2023-05-15T16:10:04.222Z,29.86
2023-05-15T16:12:38.759Z,29.87
2023-05-15T16:15:20.888Z,29.83
2023-05-15T16:17:53.658Z,29.78
2023-05-15T16:20:22.156Z,29.68
2023-05-15T16:22:49.320Z,29.56
2023-05-15T16:25:16.404Z,29.41
2023-05-15T16:27:45.940Z,29.25
2023-05-15T16:30:13.302Z,29.07
2023-05-15T16:32:40.263Z,28.89
2023-05-15T16:35:07.920Z,28.74
2023-05-15T16:37:35.146Z,28.56
2023-05-15T16:40:03.811Z,28.37
2023-05-15T16:42:36.841Z,28.19
2023-05-15T16:45:04.902Z,27.97
2023-05-15T16:47:31.812Z,27.76
2023-05-15T16:49:58.732Z,27.59
2023-05-15T16:52:25.616Z,27.46
2023-05-15T16:54:54.946Z,27.28
2023-05-15T16:57:22.394Z,27.12
2023-05-15T16:59:49.369Z,26.95
2023-05-15T17:02:16.442Z,26.79
2023-05-15T17:04:43.453Z,26.63
2023-05-15T17:07:10.308Z,26.49
2023-05-15T17:09:39.701Z,26.34
2023-05-15T17:12:06.868Z,26.17
2023-05-15T17:14:34.399Z,25.99
2023-05-15T17:17:02.422Z,25.77
2023-05-15T17:19:30.735Z,25.55
2023-05-15T17:21:57.626Z,25.34
2023-05-15T17:24:25.024Z,25.13
2023-05-15T17:26:55.008Z,24.92
2023-05-15T17:29:23.889Z,24.75
2023-05-15T17:31:51.790Z,24.60
2023-05-15T17:34:18.866Z,24.47
2023-05-15T17:36:47.961Z,24.34
2023-05-15T17:39:14.966Z,24.22
2023-05-15T17:41:42.426Z,24.10
2023-05-15T17:44:09.211Z,23.98
2023-05-15T17:46:36.073Z,23.86
2023-05-15T17:49:03.191Z,23.74
2023-05-15T17:51:30.489Z,23.64
2023-05-15T17:53:57.334Z,23.56
2023-05-15T17:56:25.022Z,23.47
2023-05-15T17:58:51.873Z,23.39
2023-05-15T18:01:19.586Z,23.31
2023-05-15T18:03:46.737Z,23.22
2023-05-15T18:06:13.987Z,23.12
2023-05-15T18:08:47.414Z,23.02
2023-05-15T18:11:21.952Z,22.93
2023-05-15T18:13:49.699Z,22.82
2023-05-15T18:16:17.871Z,22.71
2023-05-15T18:18:45.498Z,22.62
2023-05-15T18:21:12.382Z,22.52
2023-05-15T18:23:39.268Z,22.43
2023-05-15T18:26:07.380Z,22.35
2023-05-15T18:28:34.636Z,22.27
2023-05-15T18:31:01.520Z,22.19
2023-05-15T18:33:29.097Z,22.11
2023-05-15T18:35:55.819Z,22.03
2023-05-15T18:38:22.631Z,21.94
2023-05-15T18:40:49.492Z,21.87
2023-05-15T18:43:19.934Z,21.77
2023-05-15T18:45:50.063Z,21.68
2023-05-15T18:48:16.841Z,21.60
2023-05-15T18:50:43.744Z,21.50
2023-05-15T18:53:10.582Z,21.42
2023-05-15T18:55:39.006Z,21.35
2023-05-15T18:58:06.128Z,21.27
2023-05-15T19:00:38.842Z,21.19
2023-05-15T19:03:07.947Z,21.11
2023-05-15T19:05:35.254Z,21.03
2023-05-15T19:08:02.630Z,20.95
2023-05-15T19:10:30.103Z,20.88
2023-05-15T19:12:57.369Z,20.79
2023-05-15T19:15:24.518Z,20.72
2023-05-15T19:17:55.696Z,20.65
2023-05-15T19:20:22.559Z,20.59
2023-05-15T19:22:49.552Z,20.53
2023-05-15T19:25:16.466Z,20.46
2023-05-15T19:27:43.446Z,20.40
2023-05-15T19:30:11.282Z,20.35
2023-05-15T19:32:38.707Z,20.30
2023-05-15T19:35:06.096Z,20.25
2023-05-15T19:37:33.462Z,20.20
2023-05-15T19:40:00.729Z,20.14
2023-05-15T19:42:27.628Z,20.10
2023-05-15T19:44:54.444Z,20.05
2023-05-15T19:47:21.553Z,20.01
2023-05-15T19:49:49.098Z,19.96
2023-05-15T19:52:16.156Z,19.92
2023-05-15T19:54:43.751Z,19.88
2023-05-15T19:57:13.191Z,19.83
2023-05-15T19:59:40.179Z,19.79
2023-05-15T20:02:09.949Z,19.75
2023-05-15T20:04:37.159Z,19.71
2023-05-15T20:07:04.176Z,19.67
2023-05-15T20:09:33.875Z,19.63
2023-05-15T20:12:02.810Z,19.59
2023-05-15T20:14:31.561Z,19.56
2023-05-15T20:16:58.425Z,19.51
2023-05-15T20:19:25.762Z,19.45
2023-05-15T20:21:52.701Z,19.41
2023-05-15T20:24:25.831Z,19.38
2023-05-15T20:26:54.066Z,19.34
2023-05-15T20:29:22.433Z,19.31
2023-05-15T20:31:51.755Z,19.29
2023-05-15T20:34:19.771Z,19.26
2023-05-15T20:36:46.821Z,19.24
2023-05-15T20:39:16.782Z,19.22
2023-05-15T20:41:43.584Z,19.20
2023-05-15T20:44:12.025Z,19.17
2023-05-15T20:46:39.899Z,19.14
2023-05-15T20:49:07.124Z,19.11
2023-05-15T20:51:34.029Z,19.09
2023-05-15T20:54:00.997Z,19.05
2023-05-15T20:56:28.025Z,19.04
2023-05-15T20:58:56.399Z,19.01
2023-05-15T21:01:26.048Z,19.01
2023-05-15T21:03:53.022Z,19.03
2023-05-15T21:06:21.158Z,19.03
2023-05-15T21:08:48.552Z,19.04
2023-05-15T21:11:15.983Z,19.07
2023-05-15T21:13:42.831Z,19.11
2023-05-15T21:16:09.734Z,19.15
2023-05-15T21:18:41.157Z,19.20
2023-05-15T21:21:08.120Z,19.25
2023-05-15T21:23:37.926Z,19.29
2023-05-15T21:26:04.990Z,19.31
2023-05-15T21:28:31.999Z,19.34
2023-05-15T21:31:06.060Z,19.36
2023-05-15T21:33:33.337Z,19.37
2023-05-15T21:36:00.698Z,19.38
2023-05-15T21:38:28.413Z,19.38
2023-05-15T21:40:55.345Z,19.38
2023-05-15T21:43:22.393Z,19.39
2023-05-15T21:45:50.157Z,19.39
2023-05-15T21:48:17.120Z,19.38
2023-05-15T21:50:45.059Z,19.37
2023-05-15T21:53:12.511Z,19.34
2023-05-15T21:55:39.492Z,19.30
2023-05-15T21:58:06.907Z,19.27
2023-05-15T22:00:34.315Z,19.23
2023-05-15T22:03:01.360Z,19.18
2023-05-15T22:05:28.388Z,19.14
2023-05-15T22:07:55.768Z,19.10
2023-05-15T22:10:22.580Z,19.06
2023-05-15T22:12:49.621Z,19.01
2023-05-15T22:15:16.680Z,18.96
2023-05-15T22:17:43.674Z,18.89
2023-05-15T22:20:11.238Z,18.83
2023-05-15T22:22:38.858Z,18.80
2023-05-15T22:25:06.313Z,18.75
2023-05-15T22:27:33.583Z,18.70
2023-05-15T22:30:01.018Z,18.67
2023-05-15T22:32:30.503Z,18.62
2023-05-15T22:34:58.206Z,18.57
2023-05-15T22:37:25.088Z,18.52
2023-05-15T22:39:52.152Z,18.46
2023-05-15T22:42:20.631Z,18.42
2023-05-15T22:44:47.599Z,18.37
2023-05-15T22:47:14.476Z,18.32
2023-05-15T22:49:41.431Z,18.27
2023-05-15T22:52:08.297Z,18.23
2023-05-15T22:54:35.131Z,18.18
2023-05-15T22:57:02.013Z,18.13
2023-05-15T22:59:28.970Z,18.09
2023-05-15T23:01:55.925Z,18.05
2023-05-15T23:04:22.935Z,18.02
2023-05-15T23:06:49.850Z,18.01
2023-05-15T23:09:16.711Z,17.95
2023-05-15T23:11:43.588Z,17.93
2023-05-15T23:14:11.544Z,17.90
2023-05-15T23:16:38.329Z,17.85
2023-05-15T23:19:05.217Z,17.83
2023-05-15T23:21:32.420Z,17.79
2023-05-15T23:24:00.824Z,17.76
2023-05-15T23:26:27.640Z,17.75
2023-05-15T23:28:54.545Z,17.74
2023-05-15T23:31:21.540Z,17.71
2023-05-15T23:33:48.629Z,17.67
2023-05-15T23:36:20.022Z,17.60
2023-05-15T23:38:46.788Z,17.51
2023-05-15T23:41:13.666Z,17.43
2023-05-15T23:43:40.572Z,17.38
2023-05-15T23:46:07.403Z,17.34
2023-05-15T23:48:35.489Z,17.33
2023-05-15T23:51:02.990Z,17.32
2023-05-15T23:53:30.720Z,17.32
2023-05-15T23:55:57.562Z,17.31
2023-05-15T23:58:24.429Z,17.30
